Time;durP1;ratioP1;P1;durP2;ratioP2;P2;SDS_P1;SDS_P2;PMS_P1;PMS_P2;Temp;Humidity;BMP_temperature;BMP_pressure;BME280_temperature;BME280_humidity;BME280_pressure;Samples;Min_cycle;Max_cycle;Signal;HPM_P1;HPM_P2
2023/08/31 00:01:13;;;;;;;6.03;5.43;;;13.00;99.90;;;;;;5030654;28;20207;-54
2023/08/31 00:03:39;;;;;;;7.47;5.50;;;12.70;99.90;;;;;;5031301;28;20178;-51
2023/08/31 00:06:07;;;;;;;6.40;5.80;;;;;;;;;;5030650;28;20190;-55
2023/08/31 00:08:33;;;;;;;7.70;6.90;;;;;;;;;;5031292;28;20605;-57
2023/08/31 00:11:00;;;;;;;8.20;7.17;;;13.00;99.90;;;;;;5018898;28;20251;-57
2023/08/31 00:13:27;;;;;;;7.70;6.90;;;13.00;99.90;;;;;;5026898;28;20626;-52
2023/08/31 00:15:59;;;;;;;6.87;6.17;;;12.70;99.90;;;;;;5011297;28;20569;-57
2023/08/31 00:18:26;;;;;;;7.10;6.40;;;12.90;99.90;;;;;;5011382;28;20181;-54
2023/08/31 00:20:52;;;;;;;7.03;6.33;;;;;;;;;;5011424;28;20544;-57
2023/08/31 00:23:18;;;;;;;6.63;5.93;;;;;;;;;;5023885;28;20250;-56
2023/08/31 00:25:44;;;;;;;5.73;5.23;;;;;;;;;;5030842;28;20276;-53
2023/08/31 00:28:10;;;;;;;6.13;5.43;;;13.00;99.90;;;;;;5031182;28;20230;-56
2023/08/31 00:30:36;;;;;;;5.57;5.07;;;;;;;;;;5026645;28;20224;-58
2023/08/31 00:33:02;;;;;;;5.67;5.07;;;;;;;;;;5025904;28;20288;-56
2023/08/31 00:35:28;;;;;;;6.10;5.50;;;;;;;;;;5030964;28;20258;-52
2023/08/31 00:37:58;;;;;;;5.50;5.00;;;12.80;99.90;;;;;;5017692;28;20183;-53
2023/08/31 00:40:25;;;;;;;5.70;5.10;;;;;;;;;;5014816;28;20201;-54
2023/08/31 00:42:51;;;;;;;5.43;4.93;;;12.70;99.90;;;;;;5018504;28;20207;-53
2023/08/31 00:45:18;;;;;;;5.27;4.77;;;12.80;99.90;;;;;;5034216;28;20185;-56
2023/08/31 00:47:47;;;;;;;5.33;4.83;;;12.90;99.90;;;;;;5034120;28;20194;-54
2023/08/31 00:50:13;;;;;;;6.20;5.50;;;;;;;;;;5034198;28;20204;-57
2023/08/31 00:52:39;;;;;;;6.13;5.53;;;;;;;;;;5018285;28;20204;-58
2023/08/31 00:55:05;;;;;;;5.43;4.93;;;12.70;99.90;;;;;;5014487;28;20186;-58
2023/08/31 00:57:31;;;;;;;5.03;4.60;;;;;;;;;;5014198;28;20588;-58
2023/08/31 00:59:57;;;;;;;5.03;4.53;;;;;;;;;;5014264;28;20203;-59
2023/08/31 01:02:30;;;;;;;5.07;4.57;;;12.80;99.90;;;;;;5014316;28;20231;-57
2023/08/31 01:05:13;;;;;;;4.40;4.00;;;13.00;99.90;;;;;;5014619;28;20184;-57
2023/08/31 01:07:52;;;;;;;4.40;4.10;;;13.10;99.90;;;;;;5034025;28;20554;-58
2023/08/31 01:10:23;;;;;;;4.80;4.40;;;12.90;99.90;;;;;;5033988;28;20198;-56
2023/08/31 01:13:02;;;;;;;5.00;4.53;;;12.90;99.90;;;;;;5033790;28;20266;-54
2023/08/31 01:15:31;;;;;;;5.23;4.73;;;12.70;99.90;;;;;;5032226;28;20569;-60
2023/08/31 01:18:00;;;;;;;5.23;4.80;;;12.90;99.90;;;;;;5023492;28;20214;-57
2023/08/31 01:20:38;;;;;;;6.60;6.00;;;12.80;99.90;;;;;;5032082;28;20196;-55
2023/08/31 01:23:10;;;;;;;6.63;6.03;;;13.20;99.90;;;;;;5033706;28;20179;-56
2023/08/31 01:25:37;;;;;;;6.00;5.40;;;13.00;99.90;;;;;;5033546;28;20626;-55
2023/08/31 01:28:04;;;;;;;6.10;5.50;;;12.80;99.90;;;;;;5028390;28;20636;-58
2023/08/31 01:30:31;;;;;;;6.43;5.73;;;13.00;99.90;;;;;;5014834;28;20335;-56
2023/08/31 01:32:57;;;;;;;5.77;5.27;;;;;;;;;;5013817;28;20569;-56
2023/08/31 01:35:24;;;;;;;5.40;4.60;;;13.00;99.90;;;;;;5013643;28;20176;-57
2023/08/31 01:38:01;;;;;;;5.87;5.00;;;13.00;99.90;;;;;;5013342;28;20173;-56
2023/08/31 01:40:36;;;;;;;5.90;5.00;;;12.70;99.90;;;;;;5014613;28;20204;-58
2023/08/31 01:43:05;;;;;;;6.10;5.47;;;13.00;99.90;;;;;;5013651;28;20215;-51
2023/08/31 01:45:33;;;;;;;6.57;5.87;;;12.70;99.90;;;;;;5013367;28;20188;-56
2023/08/31 01:47:59;;;;;;;6.73;5.73;;;;;;;;;;5013225;28;20311;-56
2023/08/31 01:50:25;;;;;;;6.83;5.67;;;12.60;99.90;;;;;;5013424;28;20208;-55
2023/08/31 01:52:53;;;;;;;7.53;6.37;;;12.60;99.90;;;;;;5020726;28;20244;-58
2023/08/31 01:55:18;;;;;;;5.70;5.20;;;12.20;99.90;;;;;;5033059;28;20537;-57
2023/08/31 01:57:44;;;;;;;5.70;5.10;;;12.60;99.90;;;;;;5032946;28;20187;-57
2023/08/31 02:00:11;;;;;;;5.50;4.87;;;12.40;99.90;;;;;;5015118;28;20204;-59
2023/08/31 02:02:36;;;;;;;5.63;5.03;;;12.60;99.90;;;;;;5013094;28;20179;-56
2023/08/31 02:05:04;;;;;;;5.40;4.90;;;12.50;99.90;;;;;;5014182;28;20175;-59
2023/08/31 02:07:30;;;;;;;6.53;5.90;;;12.40;99.90;;;;;;5012861;28;20190;-55
2023/08/31 02:09:55;;;;;;;7.97;6.20;;;12.70;99.90;;;;;;5020734;28;20677;-57
2023/08/31 02:12:21;;;;;;;6.37;5.77;;;12.50;99.90;;;;;;5032809;28;20204;-57
2023/08/31 02:14:47;;;;;;;6.77;6.07;;;12.50;99.90;;;;;;5030080;28;20277;-56
2023/08/31 02:17:13;;;;;;;6.87;6.00;;;;;;;;;;5018288;28;20236;-58
2023/08/31 02:19:38;;;;;;;7.03;6.40;;;12.70;99.90;;;;;;5025119;28;20179;-54
2023/08/31 02:22:04;;;;;;;7.90;7.10;;;12.50;99.90;;;;;;5012797;28;20177;-57
2023/08/31 02:24:30;;;;;;;7.27;6.60;;;12.50;99.90;;;;;;5012966;28;20203;-56
2023/08/31 02:26:56;;;;;;;8.20;7.40;;;12.70;99.90;;;;;;5031793;28;20650;-57
2023/08/31 02:29:22;;;;;;;7.07;6.23;;;12.60;99.90;;;;;;5032564;28;20196;-54
2023/08/31 02:31:48;;;;;;;7.60;6.50;;;12.80;99.90;;;;;;5032129;28;20720;-57
2023/08/31 02:34:14;;;;;;;40.57;8.20;;;;;;;;;;5021100;28;20282;-56
2023/08/31 02:36:39;;;;;;;7.27;6.57;;;;;;;;;;5012272;28;20175;-56
2023/08/31 02:39:06;;;;;;;7.23;6.53;;;12.70;99.90;;;;;;5012612;28;20642;-54
2023/08/31 02:41:32;;;;;;;23.77;7.17;;;;;;;;;;5012566;28;20677;-58
2023/08/31 02:43:58;;;;;;;14.27;7.13;;;;;;;;;;5013291;28;20184;-52
2023/08/31 02:46:24;;;;;;;7.77;6.77;;;12.20;99.90;;;;;;5012104;28;20191;-57
2023/08/31 02:48:50;;;;;;;11.53;6.77;;;12.70;99.90;;;;;;5012711;28;20241;-55
2023/08/31 02:51:15;;;;;;;8.93;7.20;;;12.60;99.90;;;;;;5012404;28;20196;-57
2023/08/31 02:53:41;;;;;;;6.80;6.20;;;12.40;99.90;;;;;;5017898;28;20209;-55
2023/08/31 02:56:07;;;;;;;7.60;6.83;;;12.30;99.90;;;;;;5031783;28;20545;-57
2023/08/31 02:58:33;;;;;;;7.33;6.47;;;;;;;;;;5032102;28;20316;-57
2023/08/31 03:01:12;;;;;;;7.37;6.60;;;12.50;99.90;;;;;;5015099;28;20578;-56
2023/08/31 03:03:42;;;;;;;7.87;7.17;;;12.60;99.90;;;;;;5012296;28;20188;-57
2023/08/31 03:06:09;;;;;;;10.30;7.20;;;12.60;99.90;;;;;;5011951;28;20183;-56
2023/08/31 03:08:36;;;;;;;12.60;7.63;;;12.40;99.90;;;;;;5012111;28;20181;-56
2023/08/31 03:11:03;;;;;;;7.60;6.90;;;12.70;99.90;;;;;;5013012;28;20196;-53
2023/08/31 03:13:28;;;;;;;15.37;8.17;;;12.60;99.90;;;;;;5011921;28;20203;-54
2023/08/31 03:15:56;;;;;;;7.13;6.43;;;12.80;99.90;;;;;;5011637;28;20186;-57
2023/08/31 03:18:22;;;;;;;7.80;7.00;;;12.20;99.90;;;;;;5012091;28;20315;-55
2023/08/31 03:20:48;;;;;;;6.77;6.10;;;;;;;;;;5021116;28;20276;-55
2023/08/31 03:23:14;;;;;;;15.10;7.17;;;;;;;;;;5031654;28;20182;-59
2023/08/31 03:25:40;;;;;;;7.93;7.13;;;;;;;;;;5031390;28;20208;-56
2023/08/31 03:28:06;;;;;;;7.13;6.27;;;;;;;;;;5030579;28;20861;-57
2023/08/31 03:30:31;;;;;;;9.67;6.13;;;12.60;99.90;;;;;;5001811;28;20215;-57
2023/08/31 03:32:57;;;;;;;8.70;6.23;;;12.40;99.90;;;;;;5031599;28;20211;-55
2023/08/31 03:35:26;;;;;;;6.67;5.77;;;12.60;99.90;;;;;;5031519;28;20606;-57
2023/08/31 03:37:52;;;;;;;6.30;5.70;;;;;;;;;;5031327;28;20180;-56
2023/08/31 03:40:19;;;;;;;6.33;5.73;;;;;;;;;;5012777;28;20200;-60
2023/08/31 03:42:45;;;;;;;6.63;5.63;;;;;;;;;;5011766;28;20190;-57
2023/08/31 03:45:11;;;;;;;6.50;5.90;;;12.40;99.90;;;;;;5011710;28;20724;-58
2023/08/31 03:47:37;;;;;;;6.37;5.77;;;12.40;99.90;;;;;;5011628;28;20178;-57
2023/08/31 03:50:03;;;;;;;6.27;5.67;;;;;;;;;;5027629;28;20203;-56
2023/08/31 03:52:29;;;;;;;5.80;5.30;;;12.50;99.90;;;;;;5031485;28;20823;-57
2023/08/31 03:54:55;;;;;;;6.17;5.27;;;;;;;;;;5030090;28;20217;-56
2023/08/31 03:57:21;;;;;;;5.40;4.93;;;;;;;;;;5031035;28;20182;-59
2023/08/31 03:59:47;;;;;;;7.40;5.20;;;;;;;;;;5029967;28;20213;-56
2023/08/31 04:02:13;;;;;;;5.63;5.13;;;12.70;99.90;;;;;;5031390;28;20186;-57
2023/08/31 04:04:38;;;;;;;5.97;5.23;;;12.40;99.90;;;;;;5031395;28;20168;-54
2023/08/31 04:07:06;;;;;;;6.97;5.77;;;12.20;99.90;;;;;;5031011;28;20649;-55
2023/08/31 04:09:32;;;;;;;6.10;5.50;;;;;;;;;;5026372;28;20244;-55
2023/08/31 04:11:57;;;;;;;6.47;5.87;;;12.70;99.90;;;;;;5032410;28;20178;-57
2023/08/31 04:14:23;;;;;;;5.80;5.30;;;12.90;99.90;;;;;;5035107;28;20172;-54
2023/08/31 04:16:50;;;;;;;5.10;4.60;;;12.50;99.90;;;;;;5034721;28;20202;-55
2023/08/31 04:19:16;;;;;;;6.70;6.10;;;12.80;99.90;;;;;;5026101;28;20177;-53
2023/08/31 04:21:43;;;;;;;6.10;5.50;;;;;;;;;;5015038;28;20190;-59
2023/08/31 04:24:09;;;;;;;6.40;5.80;;;;;;;;;;5015073;28;20651;-57
2023/08/31 04:26:35;;;;;;;5.97;5.30;;;;;;;;;;5014707;28;20184;-56
2023/08/31 04:29:03;;;;;;;6.20;5.60;;;12.40;99.90;;;;;;5014759;28;20191;-57
2023/08/31 04:31:29;;;;;;;5.93;5.30;;;;;;;;;;5027696;28;20228;-56
2023/08/31 04:33:55;;;;;;;6.50;5.87;;;;;;;;;;5034655;28;20211;-58
2023/08/31 04:36:21;;;;;;;9.10;5.83;;;12.40;99.90;;;;;;5034345;28;20578;-57
2023/08/31 04:38:48;;;;;;;6.63;5.47;;;12.60;99.90;;;;;;5027460;28;20211;-59
2023/08/31 04:41:14;;;;;;;5.73;5.23;;;12.60;99.90;;;;;;5014733;28;20198;-54
2023/08/31 04:43:40;;;;;;;6.20;5.60;;;12.60;99.90;;;;;;5014789;28;20718;-57
2023/08/31 04:46:06;;;;;;;5.90;5.40;;;12.50;99.90;;;;;;5014415;28;20304;-55
2023/08/31 04:48:32;;;;;;;6.10;5.50;;;12.40;99.90;;;;;;5018544;28;20539;-57
2023/08/31 04:50:58;;;;;;;6.37;5.77;;;12.50;99.90;;;;;;5033125;28;20199;-59
2023/08/31 04:53:24;;;;;;;5.73;5.23;;;12.60;99.90;;;;;;5034211;28;20274;-56
2023/08/31 04:55:50;;;;;;;6.27;5.67;;;12.40;99.90;;;;;;5033999;28;20175;-58
2023/08/31 04:58:16;;;;;;;5.53;5.03;;;;;;;;;;5018278;28;20187;-56
2023/08/31 05:00:44;;;;;;;6.10;5.23;;;;;;;;;;5014464;28;20202;-58
2023/08/31 05:03:10;;;;;;;5.77;5.27;;;12.70;99.90;;;;;;5014482;28;20234;-56
2023/08/31 05:05:35;;;;;;;6.03;5.40;;;12.80;99.90;;;;;;5014114;28;20659;-54
2023/08/31 05:08:02;;;;;;;6.27;5.67;;;12.70;99.90;;;;;;5027124;28;20658;-56
2023/08/31 05:10:28;;;;;;;5.17;4.77;;;12.60;99.90;;;;;;5033986;28;20202;-55
2023/08/31 05:12:53;;;;;;;5.40;4.90;;;12.70;99.90;;;;;;5033969;28;20222;-57
2023/08/31 05:15:19;;;;;;;7.23;6.53;;;13.00;99.90;;;;;;5033828;28;20209;-53
2023/08/31 05:17:45;;;;;;;7.17;6.47;;;;;;;;;;5022452;28;20188;-58
2023/08/31 05:20:10;;;;;;;5.77;5.23;;;12.80;99.90;;;;;;5014067;28;20192;-54
2023/08/31 05:22:36;;;;;;;5.33;4.83;;;12.50;99.90;;;;;;5013911;28;20658;-54
2023/08/31 05:25:02;;;;;;;5.33;4.83;;;12.60;99.90;;;;;;5013221;28;20253;-54
2023/08/31 05:27:27;;;;;;;5.83;5.07;;;12.70;99.90;;;;;;5021949;28;20178;-55
2023/08/31 05:29:53;;;;;;;7.07;4.87;;;;;;;;;;5033566;28;20204;-53
2023/08/31 05:32:19;;;;;;;5.20;4.70;;;;;;;;;;5013581;28;20211;-59
2023/08/31 05:34:45;;;;;;;5.23;4.73;;;;;;;;;;5012809;28;20357;-55
2023/08/31 05:37:11;;;;;;;5.93;5.37;;;;;;;;;;5018030;28;20186;-57
2023/08/31 05:39:37;;;;;;;5.77;5.27;;;13.30;99.90;;;;;;5026314;28;20176;-53
2023/08/31 05:42:03;;;;;;;6.07;5.23;;;13.10;99.90;;;;;;5013974;28;20525;-58
2023/08/31 05:44:28;;;;;;;7.00;5.80;;;13.00;99.90;;;;;;5013611;28;20208;-58
2023/08/31 05:46:54;;;;;;;5.83;5.20;;;;;;;;;;5013329;28;20188;-57
2023/08/31 05:49:20;;;;;;;6.07;5.40;;;13.00;99.90;;;;;;5024529;28;20267;-55
2023/08/31 05:51:45;;;;;;;5.30;4.80;;;13.10;99.90;;;;;;5033074;28;20218;-53
2023/08/31 05:54:13;;;;;;;5.47;4.90;;;13.20;99.90;;;;;;5033156;28;20570;-54
2023/08/31 05:56:40;;;;;;;5.27;4.77;;;12.90;99.90;;;;;;5031941;28;20172;-57
2023/08/31 05:59:06;;;;;;;6.30;4.67;;;13.10;99.90;;;;;;5032557;28;20312;-58
2023/08/31 06:01:32;;;;;;;4.97;4.53;;;13.30;99.90;;;;;;5029922;28;20247;-56
2023/08/31 06:03:58;;;;;;;5.20;4.50;;;13.70;99.90;;;;;;5013305;28;20642;-54
2023/08/31 06:06:24;;;;;;;5.07;4.20;;;13.60;99.90;;;;;;5012714;28;20192;-55
2023/08/31 06:08:49;;;;;;;4.93;4.43;;;14.00;99.90;;;;;;5012558;28;20551;-54
2023/08/31 06:11:15;;;;;;;5.30;4.10;;;;;;;;;;5012871;28;20200;-58
2023/08/31 06:13:41;;;;;;;5.53;4.00;;;;;;;;;;5014551;28;20211;-55
2023/08/31 06:16:07;;;;;;;5.17;3.90;;;13.80;99.90;;;;;;5026935;28;20181;-56
2023/08/31 06:18:33;;;;;;;4.00;3.70;;;14.30;99.90;;;;;;5013437;28;20888;-52
2023/08/31 06:20:58;;;;;;;4.17;3.77;;;14.10;99.90;;;;;;5012805;28;20192;-54
2023/08/31 06:23:24;;;;;;;3.70;3.40;;;14.00;99.90;;;;;;5014766;28;20184;-54
2023/08/31 06:25:50;;;;;;;3.47;3.17;;;;;;;;;;5015139;28;20181;-60
2023/08/31 06:28:16;;;;;;;3.67;3.37;;;14.10;99.90;;;;;;5012324;28;20942;-55
2023/08/31 06:30:46;;;;;;;6.13;4.27;;;14.30;99.90;;;;;;5013795;28;20212;-57
2023/08/31 06:33:12;;;;;;;5.37;3.50;;;14.40;99.90;;;;;;5014907;28;20201;-53
2023/08/31 06:35:38;;;;;;;4.30;3.90;;;14.10;99.90;;;;;;5013447;28;20177;-55
2023/08/31 06:38:03;;;;;;;4.90;4.43;;;14.40;99.90;;;;;;5011413;28;20189;-54
2023/08/31 06:40:30;;;;;;;3.90;3.60;;;14.20;99.90;;;;;;5014473;28;20667;-52
2023/08/31 06:42:55;;;;;;;5.17;3.87;;;14.60;99.90;;;;;;5014009;28;20196;-56
2023/08/31 06:45:21;;;;;;;4.90;4.27;;;14.60;99.90;;;;;;5015187;28;20177;-52
2023/08/31 06:47:46;;;;;;;3.90;3.60;;;15.20;99.90;;;;;;5013816;28;20220;-55
2023/08/31 06:50:12;;;;;;;4.77;3.70;;;14.60;99.90;;;;;;5012522;28;20215;-53
2023/08/31 06:52:37;;;;;;;6.87;3.67;;;14.60;99.90;;;;;;5011649;28;20204;-52
2023/08/31 06:55:03;;;;;;;4.43;3.47;;;14.20;99.90;;;;;;5014956;28;20187;-57
2023/08/31 06:57:29;;;;;;;3.50;3.20;;;;;;;;;;5027834;28;20267;-51
2023/08/31 06:59:55;;;;;;;3.40;3.10;;;14.60;99.90;;;;;;5031866;28;20190;-51
2023/08/31 07:02:22;;;;;;;3.00;2.70;;;;;;;;;;5030846;28;20694;-56
2023/08/31 07:04:49;;;;;;;2.83;2.60;;;15.20;99.90;;;;;;5020895;28;20197;-51
2023/08/31 07:07:15;;;;;;;2.80;2.60;;;15.10;99.90;;;;;;5023180;28;20182;-52
2023/08/31 07:09:45;;;;;;;2.90;2.70;;;15.10;99.90;;;;;;5031861;28;20259;-55
2023/08/31 07:12:11;;;;;;;3.93;2.50;;;14.20;99.90;;;;;;5031881;28;20222;-51
2023/08/31 07:14:37;;;;;;;2.67;2.43;;;14.80;99.90;;;;;;5031786;28;20642;-53
2023/08/31 07:17:02;;;;;;;3.20;2.40;;;15.00;99.90;;;;;;5022331;28;20272;-54
2023/08/31 07:19:28;;;;;;;2.37;2.10;;;;;;;;;;5012035;28;20172;-58
2023/08/31 07:21:54;;;;;;;2.80;2.60;;;;;;;;;;5011963;28;20556;-56
2023/08/31 07:24:21;;;;;;;4.97;2.70;;;;;;;;;;5012040;28;20187;-56
2023/08/31 07:26:47;;;;;;;3.00;2.80;;;15.40;99.90;;;;;;5017893;28;20191;-58
2023/08/31 07:29:13;;;;;;;2.80;2.60;;;;;;;;;;5031720;28;20228;-57
2023/08/31 07:31:39;;;;;;;2.73;2.53;;;;;;;;;;5031437;28;20560;-57
2023/08/31 07:34:05;;;;;;;3.07;2.80;;;15.50;99.90;;;;;;5031562;28;20211;-51
2023/08/31 07:36:30;;;;;;;2.90;2.70;;;15.50;99.90;;;;;;5026979;28;20302;-54
2023/08/31 07:38:56;;;;;;;2.67;2.47;;;15.20;99.90;;;;;;5011935;28;20215;-53
2023/08/31 07:41:22;;;;;;;2.90;2.60;;;15.40;99.90;;;;;;5011907;28;20200;-56
2023/08/31 07:43:49;;;;;;;2.60;2.40;;;15.20;99.90;;;;;;5011638;28;20189;-60
2023/08/31 07:46:15;;;;;;;2.83;2.63;;;15.20;99.90;;;;;;5022611;28;20181;-56
2023/08/31 07:48:41;;;;;;;2.97;2.67;;;15.30;99.90;;;;;;5020771;28;20187;-58
2023/08/31 07:51:07;;;;;;;2.90;2.67;;;;;;;;;;5027981;28;20218;-56
2023/08/31 07:53:33;;;;;;;2.40;2.17;;;15.10;99.90;;;;;;5015705;28;20570;-56
2023/08/31 07:55:59;;;;;;;2.93;2.47;;;15.40;99.90;;;;;;5023308;28;20186;-55
2023/08/31 07:58:25;;;;;;;2.30;2.13;;;15.10;99.90;;;;;;5026525;28;20199;-58
2023/08/31 08:00:55;;;;;;;4.40;2.30;;;15.50;99.90;;;;;;5020072;28;20260;-54
2023/08/31 08:03:25;;;;;;;2.83;2.50;;;15.60;99.90;;;;;;5012845;28;20185;-56
2023/08/31 08:05:50;;;;;;;4.20;2.70;;;15.30;99.90;;;;;;5015258;28;20232;-58
2023/08/31 08:08:16;;;;;;;3.07;2.40;;;;;;;;;;5016113;28;20563;-58
2023/08/31 08:10:43;;;;;;;2.73;2.50;;;;;;;;;;5035137;28;20219;-59
2023/08/31 08:13:09;;;;;;;2.80;2.43;;;;;;;;;;5029673;28;20250;-57
2023/08/31 08:15:35;;;;;;;2.50;2.30;;;;;;;;;;5014493;28;20496;-58
2023/08/31 08:18:01;;;;;;;2.97;2.30;;;;;;;;;;5015155;28;20176;-57
2023/08/31 08:20:28;;;;;;;2.63;2.20;;;15.60;99.90;;;;;;5015144;28;20189;-60
2023/08/31 08:22:53;;;;;;;2.80;2.50;;;15.90;99.90;;;;;;5012409;28;20382;-56
2023/08/31 08:25:19;;;;;;;3.43;2.20;;;15.80;99.90;;;;;;5011957;28;20662;-58
2023/08/31 08:27:45;;;;;;;4.23;2.50;;;;;;;;;;5013637;28;20190;-55
2023/08/31 08:30:12;;;;;;;6.63;2.47;;;;;;;;;;5013690;28;20303;-56
2023/08/31 08:32:37;;;;;;;3.37;2.60;;;;;;;;;;5014910;28;20210;-59
2023/08/31 08:35:04;;;;;;;4.43;2.33;;;;;;;;;;5034546;28;20184;-59
2023/08/31 08:37:31;;;;;;;3.70;2.63;;;;;;;;;;5034303;28;20180;-55
2023/08/31 08:39:57;;;;;;;2.63;2.40;;;15.70;99.90;;;;;;5034630;28;20213;-57
2023/08/31 08:42:25;;;;;;;3.40;2.60;;;15.90;99.90;;;;;;5034659;28;20206;-55
2023/08/31 08:44:50;;;;;;;2.73;2.43;;;15.90;99.90;;;;;;5015996;28;20177;-58
2023/08/31 08:47:17;;;;;;;2.50;2.30;;;15.80;99.90;;;;;;5009893;28;20265;-56
2023/08/31 08:49:43;;;;;;;3.60;2.50;;;16.10;99.90;;;;;;5014448;28;20593;-57
2023/08/31 08:52:09;;;;;;;3.13;2.57;;;16.60;99.90;;;;;;5023586;28;20268;-55
2023/08/31 08:54:35;;;;;;;2.83;2.60;;;16.60;99.90;;;;;;5034099;28;20182;-56
2023/08/31 08:57:03;;;;;;;5.23;2.50;;;;;;;;;;5031351;28;20172;-59
2023/08/31 08:59:29;;;;;;;3.40;2.63;;;;;;;;;;5013588;28;20189;-56
2023/08/31 09:01:55;;;;;;;3.00;2.50;;;;;;;;;;5019094;28;20215;-59
2023/08/31 09:04:21;;;;;;;3.73;3.00;;;;;;;;;;5014837;28;20302;-59
2023/08/31 09:06:47;;;;;;;4.80;3.13;;;16.20;99.90;;;;;;5019396;28;20732;-55
2023/08/31 09:09:12;;;;;;;3.27;2.70;;;16.40;99.90;;;;;;5019406;28;20195;-53
2023/08/31 09:11:38;;;;;;;3.63;2.50;;;;;;;;;;5018137;28;20599;-56
2023/08/31 09:14:15;;;;;;;2.87;2.57;;;16.20;99.90;;;;;;5018055;28;20220;-54
2023/08/31 09:16:48;;;;;;;3.63;2.47;;;16.60;99.90;;;;;;5015199;28;20180;-57
2023/08/31 09:19:28;;;;;;;3.23;2.67;;;16.70;99.90;;;;;;5015217;28;20189;-59
2023/08/31 09:21:56;;;;;;;3.00;2.80;;;16.90;99.90;;;;;;5026726;28;20696;-53
2023/08/31 09:24:25;;;;;;;3.70;3.00;;;16.40;99.90;;;;;;5024358;28;20200;-55
2023/08/31 09:26:56;;;;;;;4.20;3.00;;;16.90;99.90;;;;;;5033530;28;20203;-56
2023/08/31 09:29:22;;;;;;;2.57;2.37;;;16.90;99.90;;;;;;5030948;28;20283;-55
2023/08/31 09:31:48;;;;;;;3.23;2.70;;;17.40;99.90;;;;;;5013539;28;20220;-59
2023/08/31 09:34:14;;;;;;;2.60;2.40;;;17.30;99.90;;;;;;5027148;28;20274;-55
2023/08/31 09:36:40;;;;;;;3.60;2.43;;;;;;;;;;5024222;28;20193;-55
2023/08/31 09:39:06;;;;;;;2.90;2.70;;;18.30;99.90;;;;;;5022503;28;20188;-54
2023/08/31 09:41:34;;;;;;;2.50;2.30;;;18.00;99.90;;;;;;5013117;28;20254;-52
2023/08/31 09:44:16;;;;;;;2.67;2.30;;;17.70;99.90;;;;;;5013716;28;20260;-54
2023/08/31 09:46:43;;;;;;;3.27;2.37;;;17.90;99.90;;;;;;5014929;28;20275;-53
2023/08/31 09:49:10;;;;;;;2.60;2.23;;;17.80;99.90;;;;;;5009727;28;20185;-55
2023/08/31 09:51:39;;;;;;;2.53;2.10;;;18.20;99.90;;;;;;4993596;28;20733;-52
2023/08/31 09:54:06;;;;;;;3.90;2.40;;;18.40;99.90;;;;;;5006718;28;20207;-56
2023/08/31 09:56:33;;;;;;;2.40;2.20;;;18.80;99.90;;;;;;5013025;28;20179;-53
2023/08/31 09:58:59;;;;;;;2.53;2.33;;;19.10;99.90;;;;;;5013500;28;20177;-54
2023/08/31 10:01:25;;;;;;;3.03;2.43;;;;;;;;;;5013253;28;20754;-55
2023/08/31 10:03:51;;;;;;;3.43;2.20;;;19.40;99.90;;;;;;5013108;28;20259;-53
2023/08/31 10:06:18;;;;;;;2.73;2.00;;;19.60;99.90;;;;;;5012629;28;20189;-53
2023/08/31 10:08:44;;;;;;;2.47;1.97;;;19.60;99.90;;;;;;5013097;28;20184;-59
2023/08/31 10:11:13;;;;;;;2.50;2.20;;;18.60;99.90;;;;;;5012922;28;20197;-58
2023/08/31 10:13:41;;;;;;;4.37;2.37;;;18.70;99.90;;;;;;5013067;28;20208;-55
2023/08/31 10:16:07;;;;;;;2.83;2.20;;;18.80;99.90;;;;;;5012688;28;20185;-57
2023/08/31 10:18:34;;;;;;;4.70;2.50;;;18.50;99.90;;;;;;5012825;28;20548;-54
2023/08/31 10:21:02;;;;;;;3.67;2.20;;;18.60;99.90;;;;;;5012960;28;20189;-55
2023/08/31 10:23:28;;;;;;;4.87;2.37;;;18.50;99.90;;;;;;5013009;28;20184;-53
2023/08/31 10:25:54;;;;;;;4.77;2.27;;;18.10;99.90;;;;;;5012326;28;20180;-53
2023/08/31 10:28:24;;;;;;;5.20;2.20;;;18.60;99.90;;;;;;5012625;28;20179;-54
2023/08/31 10:31:19;;;;;;;2.90;2.33;;;19.00;99.90;;;;;;5012511;28;20244;-55
2023/08/31 10:33:57;;;;;;;2.57;2.10;;;19.10;99.90;;;;;;5012796;28;20231;-57
2023/08/31 10:36:38;;;;;;;2.03;1.90;;;18.70;99.90;;;;;;5012262;28;20525;-58
2023/08/31 10:39:22;;;;;;;4.23;2.47;;;18.40;99.90;;;;;;5024308;28;20180;-55
2023/08/31 10:41:55;;;;;;;3.17;2.30;;;18.80;99.90;;;;;;5000649;28;20335;-51
2023/08/31 10:44:22;;;;;;;3.13;2.20;;;19.20;99.90;;;;;;5031973;28;20179;-54
2023/08/31 10:46:49;;;;;;;3.50;2.05;;;19.60;99.90;;;;;;5032001;28;20182;-55
2023/08/31 10:49:17;;;;;;;2.70;2.05;;;19.60;99.90;;;;;;5032179;28;20168;-52
2023/08/31 10:52:17;;;;;;;3.80;2.25;;;19.70;99.90;;;;;;5030275;28;20722;-52
2023/08/31 10:54:43;;;;;;;2.13;1.92;;;19.80;99.90;;;;;;5011088;28;20195;-54
2023/08/31 10:57:09;;;;;;;3.60;2.25;;;20.60;99.90;;;;;;5011408;28;20174;-54
2023/08/31 10:59:48;;;;;;;3.05;2.40;;;21.90;99.90;;;;;;5012826;28;20267;-51
2023/08/31 11:02:36;;;;;;;3.65;2.40;;;20.80;99.90;;;;;;5013128;28;20184;-54
2023/08/31 11:05:09;;;;;;;2.53;2.15;;;20.50;99.90;;;;;;5019652;28;20561;-54
2023/08/31 11:07:35;;;;;;;2.78;2.17;;;20.50;99.90;;;;;;5031571;28;20654;-51
2023/08/31 11:10:10;;;;;;;2.15;1.95;;;19.90;99.90;;;;;;5025674;28;20246;-53
2023/08/31 11:12:37;;;;;;;3.08;1.98;;;19.60;99.90;;;;;;5030197;28;20209;-51
2023/08/31 11:15:03;;;;;;;3.70;2.38;;;20.40;99.90;;;;;;5011747;28;20172;-55
2023/08/31 11:17:29;;;;;;;2.72;2.40;;;20.10;99.90;;;;;;5011588;28;20175;-52
2023/08/31 11:19:56;;;;;;;3.83;1.80;;;19.90;99.90;;;;;;5012067;28;20196;-55
2023/08/31 11:22:22;;;;;;;1.95;1.85;;;20.50;99.90;;;;;;5011495;28;20230;-54
2023/08/31 11:24:47;;;;;;;4.57;2.63;;;19.70;99.90;;;;;;5012078;28;20176;-55
2023/08/31 11:27:13;;;;;;;2.45;2.08;;;;;;;;;;5011864;28;20262;-58
2023/08/31 11:29:44;;;;;;;2.13;1.92;;;20.70;99.90;;;;;;5012149;28;20171;-58
2023/08/31 11:32:09;;;;;;;2.88;2.30;;;21.00;99.90;;;;;;5012166;28;20669;-56
2023/08/31 11:34:36;;;;;;;4.07;2.40;;;;;;;;;;5011596;28;20208;-57
2023/08/31 11:37:02;;;;;;;2.30;1.83;;;22.00;99.90;;;;;;5011487;28;20164;-59
2023/08/31 11:39:28;;;;;;;2.97;2.20;;;21.00;99.90;;;;;;5012054;28;20610;-53
2023/08/31 11:41:54;;;;;;;3.38;1.92;;;21.10;99.90;;;;;;5011899;28;20227;-54
2023/08/31 11:44:20;;;;;;;3.55;2.22;;;22.50;99.90;;;;;;5011907;28;20201;-56
2023/08/31 11:46:50;;;;;;;3.85;2.63;;;23.40;99.90;;;;;;5011620;28;20207;-60
2023/08/31 11:49:17;;;;;;;3.60;2.20;;;23.60;99.90;;;;;;5011877;28;20172;-55
2023/08/31 11:51:44;;;;;;;3.22;2.20;;;24.10;99.90;;;;;;5011834;28;20296;-56
2023/08/31 11:54:10;;;;;;;2.75;1.90;;;23.80;99.90;;;;;;5011751;28;20283;-56
2023/08/31 11:56:46;;;;;;;2.67;2.03;;;23.60;99.90;;;;;;5010273;28;20202;-58
2023/08/31 11:59:12;;;;;;;4.88;2.20;;;23.90;99.90;;;;;;5011753;28;20180;-56
2023/08/31 12:01:42;;;;;;;2.58;1.85;;;24.70;99.90;;;;;;5011749;28;20189;-56
2023/08/31 12:04:24;;;;;;;2.38;1.77;;;24.60;99.90;;;;;;5011793;28;20172;-53
2023/08/31 12:06:52;;;;;;;4.32;2.10;;;23.80;99.90;;;;;;5011448;28;20181;-57
2023/08/31 12:09:18;;;;;;;1.92;1.73;;;23.00;99.90;;;;;;5011689;28;20169;-57
2023/08/31 12:11:50;;;;;;;1.83;1.67;;;22.80;99.90;;;;;;5011646;28;20228;-56
2023/08/31 12:14:26;;;;;;;2.08;1.77;;;23.30;99.90;;;;;;5011558;28;20287;-57
2023/08/31 12:16:59;;;;;;;3.88;1.92;;;23.80;99.90;;;;;;5011408;28;20176;-56
2023/08/31 12:19:28;;;;;;;2.97;2.00;;;23.60;99.90;;;;;;5011640;28;20207;-56
2023/08/31 12:21:54;;;;;;;3.17;1.63;;;24.40;99.90;;;;;;5011570;28;20619;-58
2023/08/31 12:24:22;;;;;;;2.58;1.90;;;24.70;99.90;;;;;;5011616;28;20177;-60
2023/08/31 12:26:47;;;;;;;4.70;2.22;;;23.90;99.90;;;;;;5011269;28;20173;-57
2023/08/31 12:29:13;;;;;;;2.58;2.03;;;23.60;99.90;;;;;;5011516;28;20264;-58
2023/08/31 12:31:39;;;;;;;3.03;1.70;;;23.10;99.90;;;;;;5011305;28;20295;-56
2023/08/31 12:34:06;;;;;;;5.28;1.80;;;;;;;;;;5014282;28;20258;-56
2023/08/31 12:36:37;;;;;;;2.70;1.80;;;23.50;99.90;;;;;;5015000;28;20180;-55
2023/08/31 12:39:06;;;;;;;3.58;2.03;;;23.40;99.90;;;;;;5015084;28;20192;-56
2023/08/31 12:41:33;;;;;;;4.40;2.22;;;23.00;99.90;;;;;;5013846;28;20185;-56
2023/08/31 12:43:59;;;;;;;3.35;2.20;;;;;;;;;;5014866;28;20183;-57
2023/08/31 12:46:26;;;;;;;3.42;2.00;;;22.10;99.90;;;;;;5014530;28;20260;-59
2023/08/31 12:48:52;;;;;;;3.65;2.08;;;21.50;99.90;;;;;;5014985;28;20184;-56
2023/08/31 12:51:18;;;;;;;2.75;2.13;;;21.60;99.90;;;;;;5014694;28;20191;-57
2023/08/31 12:53:44;;;;;;;3.33;2.30;;;21.10;99.90;;;;;;5014703;28;20295;-57
2023/08/31 12:56:09;;;;;;;4.43;2.20;;;21.80;99.90;;;;;;5014424;28;20568;-56
2023/08/31 12:58:36;;;;;;;3.90;2.15;;;21.80;99.90;;;;;;5014669;28;20172;-57
2023/08/31 13:01:02;;;;;;;2.78;2.08;;;22.60;99.90;;;;;;5013277;28;20197;-54
2023/08/31 13:03:28;;;;;;;3.83;2.00;;;;;;;;;;5014570;28;20165;-60
2023/08/31 13:05:54;;;;;;;1.83;1.70;;;24.30;99.90;;;;;;5014332;28;20180;-57
2023/08/31 13:08:19;;;;;;;2.72;2.03;;;23.80;99.90;;;;;;5014485;28;20169;-58
2023/08/31 13:10:54;;;;;;;3.47;2.10;;;23.80;99.90;;;;;;5014475;28;20226;-58
2023/08/31 13:13:21;;;;;;;3.58;2.00;;;23.70;99.90;;;;;;5014312;28;20199;-58